sensor_id;sensor_type;location;lat;lon;timestamp;pressure;altitude;pressure_sealevel;temperature;humidity
84427;BME280;74637;52.170;21.034;2024-01-06T00:02:02;100085.42;;;-2.72;86.60
84427;BME280;74637;52.170;21.034;2024-01-06T00:04:28;100080.73;;;-2.73;86.64
84427;BME280;74637;52.170;21.034;2024-01-06T00:06:55;100084.55;;;-2.74;86.67
84427;BME280;74637;52.170;21.034;2024-01-06T00:09:21;100085.09;;;-2.76;86.43
84427;BME280;74637;52.170;21.034;2024-01-06T00:11:48;100089.07;;;-2.77;86.57
84427;BME280;74637;52.170;21.034;2024-01-06T00:14:14;100098.95;;;-2.76;86.71
84427;BME280;74637;52.170;21.034;2024-01-06T00:16:41;100094.61;;;-2.75;86.59
84427;BME280;74637;52.170;21.034;2024-01-06T00:19:08;100089.94;;;-2.75;86.70
84427;BME280;74637;52.170;21.034;2024-01-06T00:21:34;100090.80;;;-2.76;86.71
84427;BME280;74637;52.170;21.034;2024-01-06T00:24:01;100089.77;;;-2.78;86.44
84427;BME280;74637;52.170;21.034;2024-01-06T00:26:27;100093.42;;;-2.79;86.81
84427;BME280;74637;52.170;21.034;2024-01-06T00:28:54;100087.86;;;-2.78;86.57
84427;BME280;74637;52.170;21.034;2024-01-06T00:31:20;100095.31;;;-2.78;86.46
84427;BME280;74637;52.170;21.034;2024-01-06T00:33:47;100102.42;;;-2.78;86.54
84427;BME280;74637;52.170;21.034;2024-01-06T00:36:13;100104.16;;;-2.80;86.58
84427;BME280;74637;52.170;21.034;2024-01-06T00:38:40;100115.96;;;-2.79;86.74
84427;BME280;74637;52.170;21.034;2024-01-06T00:41:06;100121.86;;;-2.78;86.73
84427;BME280;74637;52.170;21.034;2024-01-06T00:43:33;100115.42;;;-2.76;86.85
84427;BME280;74637;52.170;21.034;2024-01-06T00:45:59;100114.40;;;-2.75;86.78
84427;BME280;74637;52.170;21.034;2024-01-06T00:48:26;100108.15;;;-2.74;86.71
84427;BME280;74637;52.170;21.034;2024-01-06T00:50:52;100103.29;;;-2.74;86.87
84427;BME280;74637;52.170;21.034;2024-01-06T00:53:19;100094.97;;;-2.71;86.90
84427;BME280;74637;52.170;21.034;2024-01-06T00:55:46;100086.11;;;-2.70;86.50
84427;BME280;74637;52.170;21.034;2024-01-06T00:58:12;100081.61;;;-2.72;86.68
84427;BME280;74637;52.170;21.034;2024-01-06T01:00:39;100076.58;;;-2.73;86.64
84427;BME280;74637;52.170;21.034;2024-01-06T01:03:06;100073.80;;;-2.73;86.63
84427;BME280;74637;52.170;21.034;2024-01-06T01:05:33;100066.52;;;-2.75;86.59
84427;BME280;74637;52.170;21.034;2024-01-06T01:08:00;100065.48;;;-2.77;86.38
84427;BME280;74637;52.170;21.034;2024-01-06T01:10:26;100061.49;;;-2.82;86.26
84427;BME280;74637;52.170;21.034;2024-01-06T01:12:53;100061.69;;;-2.87;86.59
84427;BME280;74637;52.170;21.034;2024-01-06T01:15:19;100059.61;;;-2.88;86.74
84427;BME280;74637;52.170;21.034;2024-01-06T01:17:46;100063.23;;;-2.89;86.89
84427;BME280;74637;52.170;21.034;2024-01-06T01:20:12;100057.17;;;-2.88;87.00
84427;BME280;74637;52.170;21.034;2024-01-06T01:22:39;100057.01;;;-2.89;86.52
84427;BME280;74637;52.170;21.034;2024-01-06T01:25:06;100064.64;;;-2.92;86.90
84427;BME280;74637;52.170;21.034;2024-01-06T01:27:34;100062.73;;;-2.92;86.83
84427;BME280;74637;52.170;21.034;2024-01-06T01:30:01;100070.02;;;-2.91;86.90
84427;BME280;74637;52.170;21.034;2024-01-06T01:32:27;100076.59;;;-2.89;86.68
84427;BME280;74637;52.170;21.034;2024-01-06T01:34:54;100075.39;;;-2.88;86.81
84427;BME280;74637;52.170;21.034;2024-01-06T01:37:21;100076.23;;;-2.88;87.07
84427;BME280;74637;52.170;21.034;2024-01-06T01:39:47;100068.45;;;-2.86;86.94
84427;BME280;74637;52.170;21.034;2024-01-06T01:42:14;100074.50;;;-2.86;86.65
84427;BME280;74637;52.170;21.034;2024-01-06T01:44:40;100067.56;;;-2.84;86.71
84427;BME280;74637;52.170;21.034;2024-01-06T01:47:07;100071.04;;;-2.85;86.63
84427;BME280;74637;52.170;21.034;2024-01-06T01:49:34;100063.94;;;-2.87;86.72
84427;BME280;74637;52.170;21.034;2024-01-06T01:52:01;100073.83;;;-2.87;86.53
84427;BME280;74637;52.170;21.034;2024-01-06T01:54:28;100077.81;;;-2.87;86.52
84427;BME280;74637;52.170;21.034;2024-01-06T01:56:54;100077.98;;;-2.87;86.04
84427;BME280;74637;52.170;21.034;2024-01-06T01:59:21;100082.84;;;-2.88;86.58
84427;BME280;74637;52.170;21.034;2024-01-06T02:01:47;100088.04;;;-2.88;86.38
84427;BME280;74637;52.170;21.034;2024-01-06T02:04:14;100082.49;;;-2.88;86.51
84427;BME280;74637;52.170;21.034;2024-01-06T02:06:41;100074.52;;;-2.86;86.65
84427;BME280;74637;52.170;21.034;2024-01-06T02:09:07;100073.99;;;-2.85;86.48
84427;BME280;74637;52.170;21.034;2024-01-06T02:11:34;100073.64;;;-2.85;86.23
84427;BME280;74637;52.170;21.034;2024-01-06T02:14:00;100073.82;;;-2.87;86.20
84427;BME280;74637;52.170;21.034;2024-01-06T02:16:27;100068.97;;;-2.89;86.29
84427;BME280;74637;52.170;21.034;2024-01-06T02:18:54;100068.96;;;-2.87;86.54
84427;BME280;74637;52.170;21.034;2024-01-06T02:21:21;100064.63;;;-2.86;86.71
84427;BME280;74637;52.170;21.034;2024-01-06T02:23:48;100062.38;;;-2.85;86.56
84427;BME280;74637;52.170;21.034;2024-01-06T02:26:16;100062.54;;;-2.83;86.54
84427;BME280;74637;52.170;21.034;2024-01-06T02:28:42;100059.42;;;-2.82;86.66
84427;BME280;74637;52.170;21.034;2024-01-06T02:31:13;100056.98;;;-2.81;86.59
84427;BME280;74637;52.170;21.034;2024-01-06T02:33:40;100054.73;;;-2.78;86.34
84427;BME280;74637;52.170;21.034;2024-01-06T02:36:07;100049.00;;;-2.78;85.97
84427;BME280;74637;52.170;21.034;2024-01-06T02:38:34;100048.66;;;-2.80;86.11
84427;BME280;74637;52.170;21.034;2024-01-06T02:41:00;100049.19;;;-2.81;86.25
84427;BME280;74637;52.170;21.034;2024-01-06T02:43:27;100046.92;;;-2.79;85.79
84427;BME280;74637;52.170;21.034;2024-01-06T02:45:53;100043.63;;;-2.81;85.63
84427;BME280;74637;52.170;21.034;2024-01-06T02:48:20;100046.77;;;-2.83;85.81
84427;BME280;74637;52.170;21.034;2024-01-06T02:50:46;100042.42;;;-2.84;85.79
84427;BME280;74637;52.170;21.034;2024-01-06T02:53:12;100033.23;;;-2.83;85.62
84427;BME280;74637;52.170;21.034;2024-01-06T02:55:39;100035.13;;;-2.83;85.68
84427;BME280;74637;52.170;21.034;2024-01-06T02:58:06;100043.29;;;-2.82;85.91
84427;BME280;74637;52.170;21.034;2024-01-06T03:00:32;100052.64;;;-2.80;85.62
84427;BME280;74637;52.170;21.034;2024-01-06T03:02:59;100056.30;;;-2.80;85.49
84427;BME280;74637;52.170;21.034;2024-01-06T03:05:26;100054.04;;;-2.80;85.47
84427;BME280;74637;52.170;21.034;2024-01-06T03:07:52;100049.36;;;-2.78;85.69
84427;BME280;74637;52.170;21.034;2024-01-06T03:10:19;100041.89;;;-2.75;85.42
84427;BME280;74637;52.170;21.034;2024-01-06T03:12:46;100047.78;;;-2.74;85.35
84427;BME280;74637;52.170;21.034;2024-01-06T03:15:13;100042.41;;;-2.73;85.64
84427;BME280;74637;52.170;21.034;2024-01-06T03:17:39;100043.10;;;-2.70;85.70
84427;BME280;74637;52.170;21.034;2024-01-06T03:20:07;100035.98;;;-2.70;85.41
84427;BME280;74637;52.170;21.034;2024-01-06T03:22:34;100039.62;;;-2.69;85.55
84427;BME280;74637;52.170;21.034;2024-01-06T03:25:00;100040.66;;;-2.70;85.16
84427;BME280;74637;52.170;21.034;2024-01-06T03:27:27;100045.70;;;-2.73;85.26
84427;BME280;74637;52.170;21.034;2024-01-06T03:29:54;100044.31;;;-2.73;84.68
84427;BME280;74637;52.170;21.034;2024-01-06T03:32:21;100046.75;;;-2.75;84.66
84427;BME280;74637;52.170;21.034;2024-01-06T03:34:48;100042.58;;;-2.76;84.35
84427;BME280;74637;52.170;21.034;2024-01-06T03:37:14;100041.73;;;-2.78;84.31
84427;BME280;74637;52.170;21.034;2024-01-06T03:39:41;100040.50;;;-2.81;84.65
84427;BME280;74637;52.170;21.034;2024-01-06T03:42:07;100042.08;;;-2.83;84.66
84427;BME280;74637;52.170;21.034;2024-01-06T03:44:33;100043.64;;;-2.85;84.88
84427;BME280;74637;52.170;21.034;2024-01-06T03:47:00;100041.39;;;-2.86;84.64
84427;BME280;74637;52.170;21.034;2024-01-06T03:49:27;100039.66;;;-2.89;85.01
84427;BME280;74637;52.170;21.034;2024-01-06T03:51:53;100039.67;;;-2.91;84.87
84427;BME280;74637;52.170;21.034;2024-01-06T03:54:20;100037.58;;;-2.92;84.96
84427;BME280;74637;52.170;21.034;2024-01-06T03:56:46;100036.02;;;-2.94;85.16
84427;BME280;74637;52.170;21.034;2024-01-06T03:59:13;100032.39;;;-2.97;85.49
84427;BME280;74637;52.170;21.034;2024-01-06T04:01:39;100034.98;;;-2.98;85.71
84427;BME280;74637;52.170;21.034;2024-01-06T04:04:06;100041.93;;;-2.98;86.17
84427;BME280;74637;52.170;21.034;2024-01-06T04:06:33;100046.77;;;-2.97;85.97
84427;BME280;74637;52.170;21.034;2024-01-06T04:09:00;100050.61;;;-2.97;86.05
84427;BME280;74637;52.170;21.034;2024-01-06T04:11:27;100051.80;;;-2.96;86.32
84427;BME280;74637;52.170;21.034;2024-01-06T04:13:53;100059.27;;;-2.95;86.24
84427;BME280;74637;52.170;21.034;2024-01-06T04:16:20;100056.31;;;-2.92;86.46
84427;BME280;74637;52.170;21.034;2024-01-06T04:18:47;100052.49;;;-2.90;86.21
84427;BME280;74637;52.170;21.034;2024-01-06T04:21:13;100048.00;;;-2.93;86.19
84427;BME280;74637;52.170;21.034;2024-01-06T04:23:40;100047.82;;;-2.96;86.46
84427;BME280;74637;52.170;21.034;2024-01-06T04:26:06;100047.64;;;-2.97;86.49
84427;BME280;74637;52.170;21.034;2024-01-06T04:28:33;100044.53;;;-2.96;86.69
84427;BME280;74637;52.170;21.034;2024-01-06T04:31:00;100049.73;;;-2.95;86.70
84427;BME280;74637;52.170;21.034;2024-01-06T04:33:26;100052.84;;;-2.94;86.79
84427;BME280;74637;52.170;21.034;2024-01-06T04:35:53;100049.55;;;-2.95;87.01
84427;BME280;74637;52.170;21.034;2024-01-06T04:38:19;100054.23;;;-2.92;87.22
84427;BME280;74637;52.170;21.034;2024-01-06T04:40:46;100049.04;;;-2.93;87.05
84427;BME280;74637;52.170;21.034;2024-01-06T04:43:12;100059.42;;;-2.95;87.20
84427;BME280;74637;52.170;21.034;2024-01-06T04:45:39;100063.42;;;-2.93;87.29
84427;BME280;74637;52.170;21.034;2024-01-06T04:48:06;100064.98;;;-2.93;87.48
84427;BME280;74637;52.170;21.034;2024-01-06T04:50:33;100063.94;;;-2.91;87.33
84427;BME280;74637;52.170;21.034;2024-01-06T04:52:59;100062.73;;;-2.91;87.29
84427;BME280;74637;52.170;21.034;2024-01-06T04:55:26;100062.73;;;-2.91;87.42
84427;BME280;74637;52.170;21.034;2024-01-06T04:57:52;100062.20;;;-2.91;87.42
84427;BME280;74637;52.170;21.034;2024-01-06T05:00:19;100062.91;;;-2.91;87.61
84427;BME280;74637;52.170;21.034;2024-01-06T05:02:45;100065.15;;;-2.90;87.50
84427;BME280;74637;52.170;21.034;2024-01-06T05:05:12;100067.05;;;-2.91;87.42
84427;BME280;74637;52.170;21.034;2024-01-06T05:07:39;100067.58;;;-2.93;87.58
84427;BME280;74637;52.170;21.034;2024-01-06T05:10:06;100064.47;;;-2.91;87.76
84427;BME280;74637;52.170;21.034;2024-01-06T05:12:32;100059.42;;;-2.86;87.83
84427;BME280;74637;52.170;21.034;2024-01-06T05:14:59;100057.34;;;-2.84;87.75
84427;BME280;74637;52.170;21.034;2024-01-06T05:17:26;100057.52;;;-2.85;87.47
84427;BME280;74637;52.170;21.034;2024-01-06T05:19:52;100058.74;;;-2.88;87.14
84427;BME280;74637;52.170;21.034;2024-01-06T05:22:19;100058.92;;;-2.94;87.55
84427;BME280;74637;52.170;21.034;2024-01-06T05:24:45;100067.77;;;-2.95;87.51
84427;BME280;74637;52.170;21.034;2024-01-06T05:27:12;100065.67;;;-2.93;87.50
84427;BME280;74637;52.170;21.034;2024-01-06T05:29:39;100066.54;;;-2.94;87.61
84427;BME280;74637;52.170;21.034;2024-01-06T05:32:05;100072.45;;;-2.95;87.43
84427;BME280;74637;52.170;21.034;2024-01-06T05:34:32;100076.09;;;-2.97;87.56
84427;BME280;74637;52.170;21.034;2024-01-06T05:36:59;100081.98;;;-2.97;87.47
84427;BME280;74637;52.170;21.034;2024-01-06T05:39:25;100077.82;;;-2.97;87.54
84427;BME280;74637;52.170;21.034;2024-01-06T05:41:52;100076.08;;;-2.95;87.62
84427;BME280;74637;52.170;21.034;2024-01-06T05:44:18;100074.52;;;-2.92;87.59
84427;BME280;74637;52.170;21.034;2024-01-06T05:46:45;100082.15;;;-2.91;87.63
84427;BME280;74637;52.170;21.034;2024-01-06T05:49:11;100080.59;;;-2.92;87.49
84427;BME280;74637;52.170;21.034;2024-01-06T05:51:44;100079.73;;;-2.92;87.72
84427;BME280;74637;52.170;21.034;2024-01-06T05:54:10;100079.55;;;-2.94;87.58
84427;BME280;74637;52.170;21.034;2024-01-06T05:56:37;100078.87;;;-2.93;87.54
84427;BME280;74637;52.170;21.034;2024-01-06T05:59:03;100075.39;;;-2.92;87.61
84427;BME280;74637;52.170;21.034;2024-01-06T06:01:30;100075.38;;;-2.93;87.57
84427;BME280;74637;52.170;21.034;2024-01-06T06:03:56;100081.27;;;-2.96;87.71
84427;BME280;74637;52.170;21.034;2024-01-06T06:06:23;100085.10;;;-2.93;87.78
84427;BME280;74637;52.170;21.034;2024-01-06T06:08:49;100087.70;;;-2.91;87.67
84427;BME280;74637;52.170;21.034;2024-01-06T06:11:16;100093.08;;;-2.92;87.60
84427;BME280;74637;52.170;21.034;2024-01-06T06:13:43;100093.42;;;-2.94;87.39
84427;BME280;74637;52.170;21.034;2024-01-06T06:16:10;100094.81;;;-2.93;87.50
84427;BME280;74637;52.170;21.034;2024-01-06T06:18:39;100104.69;;;-2.95;87.49
84427;BME280;74637;52.170;21.034;2024-01-06T06:21:06;100114.23;;;-2.96;87.44
84427;BME280;74637;52.170;21.034;2024-01-06T06:23:34;100118.56;;;-2.96;87.70
84427;BME280;74637;52.170;21.034;2024-01-06T06:26:08;100110.41;;;-2.93;87.63
84427;BME280;74637;52.170;21.034;2024-01-06T06:28:35;100111.98;;;-2.90;87.34
84427;BME280;74637;52.170;21.034;2024-01-06T06:31:02;100126.55;;;-2.88;87.68
84427;BME280;74637;52.170;21.034;2024-01-06T06:33:29;100127.07;;;-2.88;87.33
84427;BME280;74637;52.170;21.034;2024-01-06T06:35:56;100123.59;;;-2.88;87.28
84427;BME280;74637;52.170;21.034;2024-01-06T06:38:22;100119.61;;;-2.89;87.02
84427;BME280;74637;52.170;21.034;2024-01-06T06:40:49;100117.35;;;-2.89;87.22
84427;BME280;74637;52.170;21.034;2024-01-06T06:43:15;100124.64;;;-2.87;86.73
84427;BME280;74637;52.170;21.034;2024-01-06T06:45:42;100131.91;;;-2.87;87.08
84427;BME280;74637;52.170;21.034;2024-01-06T06:48:08;100140.07;;;-2.85;87.10
84427;BME280;74637;52.170;21.034;2024-01-06T06:50:35;100145.79;;;-2.83;87.44
84427;BME280;74637;52.170;21.034;2024-01-06T06:53:02;100148.74;;;-2.78;87.53
84427;BME280;74637;52.170;21.034;2024-01-06T06:55:29;100154.63;;;-2.75;87.50
84427;BME280;74637;52.170;21.034;2024-01-06T06:57:56;100159.14;;;-2.71;87.57
84427;BME280;74637;52.170;21.034;2024-01-06T07:00:22;100158.10;;;-2.68;87.22
84427;BME280;74637;52.170;21.034;2024-01-06T07:02:49;100154.29;;;-2.69;87.26
84427;BME280;74637;52.170;21.034;2024-01-06T07:05:16;100156.71;;;-2.67;87.39
84427;BME280;74637;52.170;21.034;2024-01-06T07:07:43;100157.06;;;-2.66;87.38
84427;BME280;74637;52.170;21.034;2024-01-06T07:10:13;100160.18;;;-2.64;87.48
84427;BME280;74637;52.170;21.034;2024-01-06T07:12:40;100150.81;;;-2.65;87.20
84427;BME280;74637;52.170;21.034;2024-01-06T07:15:06;100152.02;;;-2.66;86.71
84427;BME280;74637;52.170;21.034;2024-01-06T07:17:36;100155.33;;;-2.68;86.75
84427;BME280;74637;52.170;21.034;2024-01-06T07:20:02;100150.82;;;-2.69;86.37
84427;BME280;74637;52.170;21.034;2024-01-06T07:22:29;100147.86;;;-2.70;86.13
84427;BME280;74637;52.170;21.034;2024-01-06T07:24:56;100147.34;;;-2.71;86.12
84427;BME280;74637;52.170;21.034;2024-01-06T07:27:22;100146.65;;;-2.73;86.30
84427;BME280;74637;52.170;21.034;2024-01-06T07:29:49;100145.09;;;-2.74;86.17
84427;BME280;74637;52.170;21.034;2024-01-06T07:32:15;100143.89;;;-2.74;86.13
84427;BME280;74637;52.170;21.034;2024-01-06T07:34:42;100144.57;;;-2.72;86.26
84427;BME280;74637;52.170;21.034;2024-01-06T07:37:10;100149.60;;;-2.71;86.17
84427;BME280;74637;52.170;21.034;2024-01-06T07:39:36;100154.80;;;-2.70;85.76
84427;BME280;74637;52.170;21.034;2024-01-06T07:42:03;100158.28;;;-2.71;85.79
84427;BME280;74637;52.170;21.034;2024-01-06T07:44:30;100164.86;;;-2.71;85.78
84427;BME280;74637;52.170;21.034;2024-01-06T07:46:56;100169.72;;;-2.69;86.18
84427;BME280;74637;52.170;21.034;2024-01-06T07:49:23;100175.98;;;-2.66;86.11
84427;BME280;74637;52.170;21.034;2024-01-06T07:51:50;100179.27;;;-2.65;85.70
84427;BME280;74637;52.170;21.034;2024-01-06T07:54:16;100187.94;;;-2.67;85.78
84427;BME280;74637;52.170;21.034;2024-01-06T07:56:43;100191.59;;;-2.66;85.90
84427;BME280;74637;52.170;21.034;2024-01-06T07:59:10;100191.93;;;-2.62;86.07
84427;BME280;74637;52.170;21.034;2024-01-06T08:01:37;100190.36;;;-2.61;85.85
84427;BME280;74637;52.170;21.034;2024-01-06T08:04:04;100193.48;;;-2.60;85.99
84427;BME280;74637;52.170;21.034;2024-01-06T08:06:30;100193.31;;;-2.60;85.31
84427;BME280;74637;52.170;21.034;2024-01-06T08:08:57;100192.27;;;-2.61;85.40
84427;BME280;74637;52.170;21.034;2024-01-06T08:11:24;100192.62;;;-2.62;85.73
84427;BME280;74637;52.170;21.034;2024-01-06T08:13:50;100192.80;;;-2.62;85.66
84427;BME280;74637;52.170;21.034;2024-01-06T08:16:17;100193.66;;;-2.62;85.25
84427;BME280;74637;52.170;21.034;2024-01-06T08:18:44;100193.14;;;-2.62;85.35
84427;BME280;74637;52.170;21.034;2024-01-06T08:21:12;100189.14;;;-2.62;85.61
84427;BME280;74637;52.170;21.034;2024-01-06T08:23:38;100191.58;;;-2.60;85.37
84427;BME280;74637;52.170;21.034;2024-01-06T08:26:05;100196.61;;;-2.61;85.30
84427;BME280;74637;52.170;21.034;2024-01-06T08:28:32;100191.25;;;-2.60;85.03
84427;BME280;74637;52.170;21.034;2024-01-06T08:30:59;100201.30;;;-2.60;85.16
84427;BME280;74637;52.170;21.034;2024-01-06T08:33:25;100205.12;;;-2.60;85.52
84427;BME280;74637;52.170;21.034;2024-01-06T08:35:52;100205.98;;;-2.60;85.46
84427;BME280;74637;52.170;21.034;2024-01-06T08:38:18;100205.98;;;-2.60;85.33
84427;BME280;74637;52.170;21.034;2024-01-06T08:40:45;100207.89;;;-2.60;85.70
84427;BME280;74637;52.170;21.034;2024-01-06T08:43:14;100211.02;;;-2.57;85.77
84427;BME280;74637;52.170;21.034;2024-01-06T08:45:40;100211.02;;;-2.53;85.36
84427;BME280;74637;52.170;21.034;2024-01-06T08:48:07;100213.63;;;-2.52;84.96
84427;BME280;74637;52.170;21.034;2024-01-06T08:50:34;100221.42;;;-2.54;85.06
84427;BME280;74637;52.170;21.034;2024-01-06T08:53:00;100227.33;;;-2.55;85.59
84427;BME280;74637;52.170;21.034;2024-01-06T08:55:27;100222.12;;;-2.52;85.82
84427;BME280;74637;52.170;21.034;2024-01-06T08:57:53;100225.77;;;-2.47;85.44
84427;BME280;74637;52.170;21.034;2024-01-06T09:00:20;100234.44;;;-2.44;85.54
84427;BME280;74637;52.170;21.034;2024-01-06T09:02:46;100238.61;;;-2.44;85.44
84427;BME280;74637;52.170;21.034;2024-01-06T09:05:13;100240.16;;;-2.43;85.42
84427;BME280;74637;52.170;21.034;2024-01-06T09:07:39;100241.02;;;-2.44;85.40
84427;BME280;74637;52.170;21.034;2024-01-06T09:10:06;100243.63;;;-2.44;85.28
84427;BME280;74637;52.170;21.034;2024-01-06T09:12:33;100244.84;;;-2.44;84.91
84427;BME280;74637;52.170;21.034;2024-01-06T09:15:00;100244.84;;;-2.46;84.64
84427;BME280;74637;52.170;21.034;2024-01-06T09:17:26;100246.41;;;-2.48;84.88
84427;BME280;74637;52.170;21.034;2024-01-06T09:19:53;100252.65;;;-2.49;85.38
84427;BME280;74637;52.170;21.034;2024-01-06T09:22:20;100249.02;;;-2.46;85.22
84427;BME280;74637;52.170;21.034;2024-01-06T09:24:46;100246.06;;;-2.46;85.09
84427;BME280;74637;52.170;21.034;2024-01-06T09:27:13;100246.77;;;-2.47;85.46
84427;BME280;74637;52.170;21.034;2024-01-06T09:29:41;100244.85;;;-2.46;85.38
84427;BME280;74637;52.170;21.034;2024-01-06T09:32:08;100243.98;;;-2.45;85.35
84427;BME280;74637;52.170;21.034;2024-01-06T09:34:34;100245.89;;;-2.46;85.07
84427;BME280;74637;52.170;21.034;2024-01-06T09:37:01;100243.81;;;-2.47;85.30
84427;BME280;74637;52.170;21.034;2024-01-06T09:39:27;100245.02;;;-2.47;85.28
84427;BME280;74637;52.170;21.034;2024-01-06T09:41:54;100246.06;;;-2.49;84.64
84427;BME280;74637;52.170;21.034;2024-01-06T09:44:20;100247.79;;;-2.51;85.07
84427;BME280;74637;52.170;21.034;2024-01-06T09:46:47;100248.15;;;-2.52;85.14
84427;BME280;74637;52.170;21.034;2024-01-06T09:49:14;100246.59;;;-2.51;85.69
84427;BME280;74637;52.170;21.034;2024-01-06T09:51:41;100241.38;;;-2.48;85.78
84427;BME280;74637;52.170;21.034;2024-01-06T09:54:09;100241.21;;;-2.44;85.88
84427;BME280;74637;52.170;21.034;2024-01-06T09:56:39;100241.38;;;-2.40;85.92
84427;BME280;74637;52.170;21.034;2024-01-06T09:59:05;100238.25;;;-2.37;85.71
84427;BME280;74637;52.170;21.034;2024-01-06T10:01:32;100243.11;;;-2.36;85.80
84427;BME280;74637;52.170;21.034;2024-01-06T10:03:58;100247.45;;;-2.35;85.72
84427;BME280;74637;52.170;21.034;2024-01-06T10:06:25;100249.89;;;-2.38;85.22
84427;BME280;74637;52.170;21.034;2024-01-06T10:08:52;100252.67;;;-2.41;85.73
84427;BME280;74637;52.170;21.034;2024-01-06T10:11:19;100249.02;;;-2.40;85.26
84427;BME280;74637;52.170;21.034;2024-01-06T10:13:49;100251.63;;;-2.40;85.77
84427;BME280;74637;52.170;21.034;2024-01-06T10:16:17;100252.48;;;-2.41;85.47
84427;BME280;74637;52.170;21.034;2024-01-06T10:18:44;100261.86;;;-2.43;85.26
84427;BME280;74637;52.170;21.034;2024-01-06T10:21:12;100262.39;;;-2.46;85.45
84427;BME280;74637;52.170;21.034;2024-01-06T10:23:39;100259.42;;;-2.49;85.57
84427;BME280;74637;52.170;21.034;2024-01-06T10:26:12;100256.48;;;-2.50;85.61
84427;BME280;74637;52.170;21.034;2024-01-06T10:28:40;100258.90;;;-2.50;85.70
84427;BME280;74637;52.170;21.034;2024-01-06T10:31:08;100260.30;;;-2.48;86.05
84427;BME280;74637;52.170;21.034;2024-01-06T10:33:35;100263.07;;;-2.46;85.98
84427;BME280;74637;52.170;21.034;2024-01-06T10:36:02;100261.51;;;-2.43;85.71
84427;BME280;74637;52.170;21.034;2024-01-06T10:38:29;100258.38;;;-2.45;85.44
84427;BME280;74637;52.170;21.034;2024-01-06T10:40:57;100263.08;;;-2.47;85.42
84427;BME280;74637;52.170;21.034;2024-01-06T10:43:28;100264.81;;;-2.47;85.58
84427;BME280;74637;52.170;21.034;2024-01-06T10:46:02;100266.38;;;-2.48;85.47
84427;BME280;74637;52.170;21.034;2024-01-06T10:48:32;100267.75;;;-2.48;85.11
84427;BME280;74637;52.170;21.034;2024-01-06T10:51:00;100269.31;;;-2.50;85.76
84427;BME280;74637;52.170;21.034;2024-01-06T10:53:29;100263.23;;;-2.47;85.98
84427;BME280;74637;52.170;21.034;2024-01-06T10:55:57;100265.33;;;-2.45;85.67
84427;BME280;74637;52.170;21.034;2024-01-06T10:58:24;100258.03;;;-2.43;85.17
84427;BME280;74637;52.170;21.034;2024-01-06T11:00:52;100254.73;;;-2.43;85.12
84427;BME280;74637;52.170;21.034;2024-01-06T11:03:19;100255.45;;;-2.43;85.53
84427;BME280;74637;52.170;21.034;2024-01-06T11:05:47;100246.06;;;-2.42;85.73
84427;BME280;74637;52.170;21.034;2024-01-06T11:08:17;100244.33;;;-2.40;85.49
84427;BME280;74637;52.170;21.034;2024-01-06T11:10:44;100243.13;;;-2.40;85.54
84427;BME280;74637;52.170;21.034;2024-01-06T11:13:11;100244.68;;;-2.41;85.74
84427;BME280;74637;52.170;21.034;2024-01-06T11:15:43;100248.67;;;-2.41;86.09
84427;BME280;74637;52.170;21.034;2024-01-06T11:18:31;100254.73;;;-2.41;86.11
84427;BME280;74637;52.170;21.034;2024-01-06T11:21:20;100254.39;;;-2.39;85.85
84427;BME280;74637;52.170;21.034;2024-01-06T11:24:18;100255.27;;;-2.40;85.98
84427;BME280;74637;52.170;21.034;2024-01-06T11:26:52;100260.98;;;-2.39;86.38
84427;BME280;74637;52.170;21.034;2024-01-06T11:29:19;100258.73;;;-2.35;86.19
84427;BME280;74637;52.170;21.034;2024-01-06T11:32:16;100258.20;;;-2.32;86.06
84427;BME280;74637;52.170;21.034;2024-01-06T11:34:53;100256.30;;;-2.34;86.06
84427;BME280;74637;52.170;21.034;2024-01-06T11:37:35;100261.51;;;-2.35;86.03
84427;BME280;74637;52.170;21.034;2024-01-06T11:42:47;100262.03;;;-2.39;85.93
84427;BME280;74637;52.170;21.034;2024-01-06T11:45:14;100260.64;;;-2.37;85.74
84427;BME280;74637;52.170;21.034;2024-01-06T11:47:47;100257.69;;;-2.38;85.83
84427;BME280;74637;52.170;21.034;2024-01-06T11:50:15;100261.15;;;-2.38;86.16
84427;BME280;74637;52.170;21.034;2024-01-06T11:52:41;100266.55;;;-2.34;86.08
84427;BME280;74637;52.170;21.034;2024-01-06T11:55:09;100267.23;;;-2.31;86.11
84427;BME280;74637;52.170;21.034;2024-01-06T11:57:36;100268.61;;;-2.29;85.48
84427;BME280;74637;52.170;21.034;2024-01-06T12:00:03;100270.89;;;-2.29;86.12
84427;BME280;74637;52.170;21.034;2024-01-06T12:02:30;100266.20;;;-2.26;85.86
84427;BME280;74637;52.170;21.034;2024-01-06T12:04:57;100266.36;;;-2.24;84.88
84427;BME280;74637;52.170;21.034;2024-01-06T12:07:24;100264.64;;;-2.29;84.68
84427;BME280;74637;52.170;21.034;2024-01-06T12:10:01;100263.24;;;-2.33;84.69
84427;BME280;74637;52.170;21.034;2024-01-06T12:12:28;100267.06;;;-2.36;84.88
84427;BME280;74637;52.170;21.034;2024-01-06T12:14:54;100270.37;;;-2.35;85.11
84427;BME280;74637;52.170;21.034;2024-01-06T12:17:21;100270.88;;;-2.35;85.39
84427;BME280;74637;52.170;21.034;2024-01-06T12:19:48;100271.23;;;-2.31;85.19
84427;BME280;74637;52.170;21.034;2024-01-06T12:22:15;100274.18;;;-2.30;85.12
84427;BME280;74637;52.170;21.034;2024-01-06T12:24:42;100277.13;;;-2.28;85.23
84427;BME280;74637;52.170;21.034;2024-01-06T12:27:09;100275.39;;;-2.28;85.04
84427;BME280;74637;52.170;21.034;2024-01-06T12:29:40;100274.88;;;-2.26;84.59
84427;BME280;74637;52.170;21.034;2024-01-06T12:32:08;100273.83;;;-2.26;84.10
84427;BME280;74637;52.170;21.034;2024-01-06T12:34:35;100272.97;;;-2.27;84.57
84427;BME280;74637;52.170;21.034;2024-01-06T12:37:02;100273.48;;;-2.26;84.89
84427;BME280;74637;52.170;21.034;2024-01-06T12:39:30;100273.66;;;-2.25;83.81
84427;BME280;74637;52.170;21.034;2024-01-06T12:41:57;100285.99;;;-2.28;83.95
84427;BME280;74637;52.170;21.034;2024-01-06T12:44:26;100285.30;;;-2.31;83.93